createdAt,value
2018-04-02T00:07:00.308Z,5.2
2018-04-02T00:17:19.439Z,5.0
2018-04-02T00:27:31.015Z,4.9
2018-04-02T00:37:55.483Z,4.8
2018-04-02T00:48:11.396Z,4.7
2018-04-02T00:58:32.335Z,4.5
2018-04-02T01:08:51.719Z,4.4
2018-04-02T01:31:42.116Z,3.6
2018-04-02T01:41:55.839Z,3.6
2018-04-02T01:52:15.198Z,3.5
2018-04-02T02:02:29.873Z,3.2
2018-04-02T02:12:46.033Z,2.9
2018-04-02T02:22:59.808Z,2.7
2018-04-02T02:33:28.093Z,2.5
2018-04-02T02:43:42.779Z,2.3
2018-04-02T02:54:02.220Z,2.1
2018-04-02T03:04:16.218Z,2.0
2018-04-02T03:15:04.298Z,1.6
2018-04-02T03:25:18.201Z,1.6
2018-04-02T03:35:32.446Z,1.5
2018-04-02T03:45:55.349Z,1.3
2018-04-02T03:56:17.949Z,1.2
2018-04-02T04:06:32.219Z,1.1
2018-04-02T04:17:18.197Z,0.9
2018-04-02T04:27:32.201Z,0.9
2018-04-02T04:37:47.225Z,0.9
2018-04-02T04:48:10.967Z,0.9
2018-04-02T04:58:24.484Z,0.9
2018-04-02T05:08:39.478Z,1.0
2018-04-02T05:19:03.346Z,1.1
2018-04-02T05:29:15.406Z,1.2
2018-04-02T05:39:31.164Z,1.3
2018-04-02T05:50:20.057Z,1.6
2018-04-02T06:00:44.445Z,1.6
2018-04-02T06:11:01.251Z,1.8
2018-04-02T06:21:14.963Z,2.0
2018-04-02T06:31:29.421Z,2.3
2018-04-02T06:41:43.706Z,2.6
2018-04-02T06:55:01.005Z,3.2
2018-04-02T07:05:15.085Z,3.2
2018-04-02T07:15:29.111Z,3.6
2018-04-02T07:25:45.509Z,4.0
2018-04-02T07:46:26.744Z,4.7
2018-04-02T07:56:41.109Z,5.1
2018-04-02T08:17:34.965Z,6.4
2018-04-02T08:27:53.086Z,7.1
2018-04-02T08:38:08.750Z,7.9
2018-04-02T08:48:43.779Z,8.8
2018-04-02T08:58:56.149Z,9.7
2018-04-02T09:10:07.179Z,10.8
2018-04-02T09:20:54.025Z,11.1
2018-04-02T09:31:08.336Z,11.2
2018-04-02T09:52:16.446Z,11.8
2018-04-02T10:02:32.344Z,12.2
2018-04-02T10:55:20.128Z,16.0
2018-04-02T11:06:32.651Z,17.2
2018-04-02T11:19:30.204Z,18.3
2018-04-02T11:29:48.319Z,18.3
2018-04-02T11:40:03.102Z,18.2
2018-04-02T11:50:50.140Z,17.7
2018-04-02T12:01:01.956Z,17.7
2018-04-02T12:12:21.002Z,17.2
2018-04-02T12:23:42.233Z,16.3
2018-04-02T12:45:16.745Z,16.0
2018-04-02T12:56:28.175Z,15.9
2018-04-02T13:21:03.012Z,15.7
2018-04-02T13:33:31.610Z,15.8
2018-04-02T13:44:24.645Z,15.8
2018-04-02T14:05:27.225Z,16.1
2018-04-02T14:15:55.479Z,16.1
2018-04-02T14:26:46.228Z,16.1
2018-04-02T14:47:17.440Z,16.1
2018-04-02T14:59:12.824Z,16.1
2018-04-02T15:20:08.759Z,15.7
2018-04-02T15:30:23.613Z,15.5
2018-04-02T15:40:38.146Z,15.3
2018-04-02T15:51:11.013Z,15.1
2018-04-02T16:11:43.475Z,14.7
2018-04-02T16:22:16.024Z,14.7
2018-04-02T16:43:20.192Z,14.4
2018-04-02T16:54:12.151Z,14.3
2018-04-02T17:16:05.830Z,13.9
2018-04-02T17:26:19.372Z,13.9
2018-04-02T17:36:32.764Z,13.7
2018-04-02T17:47:21.633Z,13.3
2018-04-02T17:57:56.259Z,13.3
2018-04-02T18:08:15.105Z,13.0
2018-04-02T18:18:52.051Z,12.8
2018-04-02T19:41:32.214Z,11.4
2018-04-02T19:57:18.025Z,11.3
2018-04-02T20:07:29.672Z,11.3
2018-04-02T20:18:15.228Z,11.0
2018-04-02T20:29:00.944Z,10.9
2018-04-02T20:39:12.420Z,10.9
2018-04-02T20:49:26.491Z,10.7
2018-04-02T20:59:37.836Z,10.6
2018-04-02T21:09:51.764Z,10.5
2018-04-02T21:20:04.240Z,10.4
2018-04-02T21:30:15.287Z,10.2
2018-04-02T21:40:28.871Z,10.1
2018-04-02T21:50:42.910Z,10.0
2018-04-02T22:01:27.759Z,9.8
2018-04-02T22:11:40.936Z,9.8
2018-04-02T22:21:54.205Z,9.8
2018-04-02T22:32:08.632Z,9.7
2018-04-02T22:42:22.941Z,9.6
2018-04-02T22:52:37.101Z,9.6
2018-04-02T23:13:09.468Z,9.5
2018-04-02T23:23:23.001Z,9.5
2018-04-02T23:33:37.221Z,9.5
2018-04-02T23:44:23.718Z,9.6
2018-04-02T23:55:08.936Z,9.7
